CheckWX is a tool to help pilots better visualize weather data.  It is not intended as a substitute for an official pre-flight weather briefing.

13:11:53 UTC

LKMT TAF
Ostrava Leos Janáček Airport
Ostrava, Czech Republic
TAF LKMT 181100Z 1812/1918 22012KT CAVOK PROB30 TEMPO 1812/1816 23016G26KT BECMG 1907/1909 26006KT PROB30 TEMPO 1910/1918 31014KT 8000 SHRA SCT045TCU

Aug-18@
12:00 UTC

Aug-18 @ 12:00 UTC

Aug-19@
07:00 UTC

Aug-19 @ 07:00 UTC

TAF LKMT 181100Z 1812/1918 22012KT CAVOK
Wind
  • 220° at 12 KTS
Conditions
No significant weather
Cloud Levels
  • No significant clouds

Aug-18@
12:00 UTC

Aug-18 @ 12:00 UTC

Aug-18@
16:00 UTC

Aug-18 @ 16:00 UTC

PROB30 TEMPO 1812/1816 23016G26KT

Temporary - 30% Likelihood

Temporary - 30% Likelihood during this time.

Wind
  • 230° at 16 KTS
  • {Gusting to 26 KTS

Aug-19@
07:00 UTC

Aug-19 @ 07:00 UTC

Aug-19@
18:00 UTC

Aug-19 @ 18:00 UTC

BECMG 1907/1909 26006KT

Becoming

Becoming Conditions expected by Mon, Aug 19, 2019 @ 09:00 UTC

Wind
  • 260° at 6 KTS
Conditions
No significant weather
Cloud Levels
  • No significant clouds

Aug-19@
10:00 UTC

Aug-19 @ 10:00 UTC

Aug-19@
18:00 UTC

Aug-19 @ 18:00 UTC

PROB30 TEMPO 1910/1918 31014KT 8000 SHRA SCT045TCU

Temporary - 30% Likelihood

Temporary - 30% Likelihood during this time.

Wind
  • 310° at 14 KTS
Conditions
Rain
Cloud Levels
  • Scattered at 4,500' AGL